createdAt,value
2019-02-11T00:00:19.633Z,7.20
2019-02-11T00:01:19.612Z,7.23
2019-02-11T00:02:19.636Z,7.15
2019-02-11T00:03:19.707Z,7.18
2019-02-11T00:04:19.559Z,7.10
2019-02-11T00:05:19.578Z,7.10
2019-02-11T00:06:19.574Z,7.05
2019-02-11T00:07:19.529Z,7.10
2019-02-11T00:08:19.512Z,7.10
2019-02-11T00:09:19.503Z,6.96
2019-02-11T00:10:19.503Z,6.93
2019-02-11T00:11:19.566Z,6.84
2019-02-11T00:12:19.557Z,6.84
2019-02-11T00:13:19.462Z,6.84
2019-02-11T00:14:19.453Z,6.87
2019-02-11T00:15:19.447Z,6.74
2019-02-11T00:16:19.436Z,6.72
2019-02-11T00:17:19.425Z,6.67
2019-02-11T00:18:19.438Z,6.64
2019-02-11T00:19:19.395Z,6.48
2019-02-11T00:20:19.405Z,6.52
2019-02-11T00:21:19.402Z,6.54
2019-02-11T00:22:19.371Z,6.49
2019-02-11T00:23:19.356Z,6.45
2019-02-11T00:24:19.351Z,6.41
2019-02-11T00:25:19.328Z,6.36
2019-02-11T00:26:19.344Z,6.31
2019-02-11T00:27:19.312Z,6.42
2019-02-11T00:28:19.297Z,6.31
2019-02-11T00:29:19.297Z,6.30
2019-02-11T00:30:19.284Z,6.31
2019-02-11T00:31:19.358Z,6.26
2019-02-11T00:32:19.274Z,6.33
2019-02-11T00:33:19.255Z,6.35
2019-02-11T00:34:19.261Z,6.27
2019-02-11T00:35:19.233Z,6.24
2019-02-11T00:36:19.262Z,6.17
2019-02-11T00:37:19.191Z,6.19
2019-02-11T00:38:19.214Z,6.19
2019-02-11T00:39:19.187Z,6.14
2019-02-11T00:40:19.182Z,6.17
2019-02-11T00:41:19.150Z,6.12
2019-02-11T00:42:19.141Z,6.14
2019-02-11T00:43:19.558Z,6.14
2019-02-11T00:44:19.179Z,6.05
2019-02-11T00:45:19.118Z,6.07
2019-02-11T00:46:19.971Z,6.16
2019-02-11T00:47:19.120Z,6.11
2019-02-11T00:48:19.084Z,6.11
2019-02-11T00:49:19.082Z,6.08
2019-02-11T00:50:19.087Z,6.07
2019-02-11T00:51:19.078Z,6.07
2019-02-11T00:52:19.037Z,6.05
2019-02-11T00:53:19.026Z,6.08
2019-02-11T00:54:19.017Z,6.09
2019-02-11T00:55:19.047Z,6.07
2019-02-11T00:56:19.015Z,6.09
2019-02-11T00:57:18.993Z,5.99
2019-02-11T00:58:18.975Z,5.97
2019-02-11T00:59:18.967Z,5.98
2019-02-11T01:00:18.957Z,6.01
2019-02-11T01:01:18.953Z,5.91
2019-02-11T01:02:18.963Z,5.93
2019-02-11T01:03:18.930Z,5.91
2019-02-11T01:04:18.949Z,5.89
2019-02-11T01:05:18.904Z,5.90
2019-02-11T01:06:18.888Z,5.90
2019-02-11T01:07:18.872Z,5.90
2019-02-11T01:08:18.880Z,5.82
2019-02-11T01:09:18.844Z,5.73
2019-02-11T01:10:18.844Z,5.84
2019-02-11T01:11:18.823Z,5.68
2019-02-11T01:12:18.810Z,5.69
2019-02-11T01:13:27.206Z,5.69
2019-02-11T01:14:19.829Z,5.65
2019-02-11T01:15:18.787Z,5.62
2019-02-11T01:16:18.783Z,5.64
2019-02-11T01:17:18.758Z,5.64
2019-02-11T01:18:18.763Z,5.59
2019-02-11T01:19:18.750Z,5.68
2019-02-11T01:20:18.761Z,5.65
2019-02-11T01:21:18.718Z,5.68
2019-02-11T01:22:18.713Z,5.64
2019-02-11T01:23:18.689Z,5.64
2019-02-11T01:24:18.680Z,5.48
2019-02-11T01:25:18.749Z,5.46
2019-02-11T01:26:18.684Z,5.43
2019-02-11T01:27:18.661Z,5.41
2019-02-11T01:28:18.656Z,5.36
2019-02-11T01:29:18.629Z,5.35
2019-02-11T01:30:18.625Z,5.41
2019-02-11T01:31:18.628Z,5.23
2019-02-11T01:32:18.628Z,5.30
2019-02-11T01:33:18.607Z,5.23
2019-02-11T01:34:18.568Z,5.29
2019-02-11T01:35:18.583Z,5.12
2019-02-11T01:36:18.554Z,5.15
2019-02-11T01:37:18.546Z,5.05
2019-02-11T01:38:18.541Z,5.00
2019-02-11T01:39:18.517Z,5.00
2019-02-11T01:40:18.678Z,4.92
2019-02-11T01:41:18.520Z,4.89
2019-02-11T01:42:18.488Z,4.93
2019-02-11T01:43:18.481Z,4.90
2019-02-11T01:44:18.497Z,4.78
2019-02-11T01:45:18.464Z,4.67
2019-02-11T01:46:18.458Z,4.67
2019-02-11T01:47:18.813Z,4.74
2019-02-11T01:48:18.426Z,4.71
2019-02-11T01:49:18.428Z,4.55
2019-02-11T01:50:18.421Z,4.56
2019-02-11T01:51:18.388Z,4.50
2019-02-11T01:52:18.383Z,4.45
2019-02-11T01:53:18.393Z,4.44
2019-02-11T01:54:18.362Z,4.48
2019-02-11T01:55:18.344Z,4.48
2019-02-11T01:56:18.353Z,4.41
2019-02-11T01:57:18.330Z,4.30
2019-02-11T01:58:18.339Z,4.41
2019-02-11T01:59:18.303Z,4.35
2019-02-11T02:00:18.307Z,4.26
2019-02-11T02:01:18.302Z,4.28
2019-02-11T02:02:18.273Z,4.23
2019-02-11T02:03:18.278Z,4.22
2019-02-11T02:04:18.242Z,4.17
2019-02-11T02:05:18.248Z,4.08
2019-02-11T02:06:18.236Z,4.13
2019-02-11T02:07:18.260Z,4.10
2019-02-11T02:08:18.218Z,4.04
2019-02-11T02:09:18.224Z,4.01
2019-02-11T02:10:18.181Z,3.99
2019-02-11T02:11:18.183Z,3.91
2019-02-11T02:12:18.170Z,3.98
2019-02-11T02:13:18.155Z,3.99
2019-02-11T02:14:18.142Z,3.92
2019-02-11T02:15:18.150Z,3.86
2019-02-11T02:16:18.113Z,3.80
2019-02-11T02:17:18.115Z,3.77
2019-02-11T02:18:18.103Z,3.80
2019-02-11T02:19:18.092Z,3.76
2019-02-11T02:20:18.066Z,3.87
2019-02-11T02:21:18.111Z,3.81
2019-02-11T02:22:18.044Z,3.77
2019-02-11T02:23:18.057Z,3.80
2019-02-11T02:24:18.025Z,3.70
2019-02-11T02:25:18.033Z,3.68
2019-02-11T02:26:18.300Z,3.83
2019-02-11T02:27:18.011Z,3.80
2019-02-11T02:28:17.989Z,3.87
2019-02-11T02:29:17.990Z,3.84
2019-02-11T02:30:17.961Z,3.80
2019-02-11T02:31:17.948Z,3.70
2019-02-11T02:32:17.948Z,3.83
2019-02-11T02:33:17.962Z,3.81
2019-02-11T02:34:17.927Z,3.88
2019-02-11T02:35:17.924Z,3.77
2019-02-11T02:36:17.908Z,3.80
2019-02-11T02:37:17.879Z,3.76
2019-02-11T02:38:17.868Z,3.83
2019-02-11T02:39:17.884Z,3.80
2019-02-11T02:40:17.865Z,3.86
2019-02-11T02:41:17.845Z,3.81
2019-02-11T02:42:17.865Z,3.74
2019-02-11T02:43:17.823Z,3.77
2019-02-11T02:44:17.810Z,3.74
2019-02-11T02:45:17.825Z,3.73
2019-02-11T02:46:17.788Z,3.68
2019-02-11T02:47:17.804Z,3.66
2019-02-11T02:48:17.879Z,3.70
2019-02-11T02:49:17.759Z,3.74
2019-02-11T02:50:17.748Z,3.60
2019-02-11T02:51:17.759Z,3.63
2019-02-11T02:52:17.720Z,3.58
2019-02-11T02:53:17.704Z,3.55
2019-02-11T02:54:17.697Z,3.47
2019-02-11T02:55:17.781Z,3.58
2019-02-11T02:56:17.707Z,3.47
2019-02-11T02:57:17.670Z,3.45
2019-02-11T02:58:17.657Z,3.40
2019-02-11T02:59:17.664Z,3.40
2019-02-11T03:00:17.625Z,3.45
2019-02-11T03:01:17.622Z,3.41
2019-02-11T03:02:17.632Z,3.31
2019-02-11T03:03:17.600Z,3.31
2019-02-11T03:04:18.479Z,3.29
2019-02-11T03:05:17.588Z,3.29
2019-02-11T03:06:17.563Z,3.18
2019-02-11T03:07:17.566Z,3.21
2019-02-11T03:08:17.576Z,3.22
2019-02-11T03:09:17.560Z,3.25
2019-02-11T03:10:17.525Z,3.21
2019-02-11T03:11:17.521Z,3.19
2019-02-11T03:12:22.877Z,3.19
2019-02-11T03:13:17.499Z,3.13
2019-02-11T03:14:17.492Z,3.18
2019-02-11T03:15:17.496Z,3.18
2019-02-11T03:16:17.454Z,3.18
2019-02-11T03:17:17.451Z,3.14
2019-02-11T03:18:17.477Z,3.10
2019-02-11T03:19:17.433Z,3.07
2019-02-11T03:20:17.435Z,3.13
2019-02-11T03:21:17.439Z,3.08
2019-02-11T03:22:17.408Z,3.21
2019-02-11T03:23:17.409Z,3.16
2019-02-11T03:24:17.406Z,3.21
2019-02-11T03:25:17.372Z,3.18
2019-02-11T03:26:17.348Z,3.19
2019-02-11T03:27:17.379Z,3.16
2019-02-11T03:28:17.330Z,3.16
2019-02-11T03:29:17.325Z,3.18
2019-02-11T03:30:17.320Z,3.23
2019-02-11T03:31:17.353Z,3.16
2019-02-11T03:32:17.289Z,3.19
2019-02-11T03:33:17.321Z,3.18
2019-02-11T03:34:17.287Z,3.18
2019-02-11T03:35:17.252Z,3.18
2019-02-11T03:36:17.255Z,3.21
2019-02-11T03:37:17.230Z,3.10
2019-02-11T03:38:17.222Z,3.21
2019-02-11T03:39:17.234Z,3.14
2019-02-11T03:40:17.208Z,3.14
2019-02-11T03:41:17.215Z,3.22
2019-02-11T03:42:17.192Z,3.21
2019-02-11T03:43:17.206Z,3.19
2019-02-11T03:44:17.174Z,3.13
2019-02-11T03:45:17.161Z,3.10
2019-02-11T03:46:17.151Z,3.16
2019-02-11T03:47:32.009Z,3.16
2019-02-11T03:48:17.117Z,3.16
2019-02-11T03:49:17.922Z,3.19
2019-02-11T03:50:17.094Z,3.25
2019-02-11T03:51:17.092Z,3.26
2019-02-11T03:52:17.081Z,3.22
2019-02-11T03:53:17.070Z,3.26
2019-02-11T03:54:17.067Z,3.26
2019-02-11T03:55:17.060Z,3.34
2019-02-11T03:56:17.026Z,3.34
2019-02-11T03:57:17.037Z,3.31
2019-02-11T03:58:17.013Z,3.36
2019-02-11T03:59:17.005Z,3.45
2019-02-11T04:00:17.020Z,3.42
2019-02-11T04:01:17.015Z,3.42
2019-02-11T04:02:16.970Z,3.48
2019-02-11T04:03:16.963Z,3.53
2019-02-11T04:04:16.980Z,3.56
2019-02-11T04:05:16.981Z,3.58
2019-02-11T04:06:17.014Z,3.58
2019-02-11T04:07:16.935Z,3.65
2019-02-11T04:08:16.913Z,3.66
2019-02-11T04:09:16.990Z,3.70
2019-02-11T04:10:16.894Z,3.70
2019-02-11T04:11:16.884Z,3.73
2019-02-11T04:12:16.848Z,3.74
2019-02-11T04:13:16.903Z,3.77
2019-02-11T04:14:24.692Z,3.69
2019-02-11T04:15:17.837Z,3.70
2019-02-11T04:16:16.819Z,3.83
2019-02-11T04:17:16.818Z,3.77
2019-02-11T04:18:16.784Z,3.91
2019-02-11T04:19:16.798Z,3.88
2019-02-11T04:20:16.775Z,3.81
2019-02-11T04:21:16.782Z,3.87
2019-02-11T04:22:16.769Z,3.92
2019-02-11T04:23:16.747Z,3.92
2019-02-11T04:24:16.720Z,3.96
2019-02-11T04:25:16.735Z,3.92
2019-02-11T04:26:16.712Z,4.04
2019-02-11T04:27:16.743Z,4.01
2019-02-11T04:28:16.717Z,4.02
2019-02-11T04:29:16.672Z,3.98
2019-02-11T04:30:16.664Z,4.02
2019-02-11T04:31:16.651Z,4.02
2019-02-11T04:32:16.646Z,3.99
2019-02-11T04:33:16.642Z,4.02
2019-02-11T04:34:16.647Z,4.14
2019-02-11T04:35:16.603Z,4.13
2019-02-11T04:36:16.611Z,4.22
2019-02-11T04:37:16.589Z,4.13
2019-02-11T04:38:16.589Z,4.26
2019-02-11T04:39:16.592Z,4.19
2019-02-11T04:40:16.599Z,4.26
2019-02-11T04:41:16.539Z,4.37
2019-02-11T04:42:16.540Z,4.38
2019-02-11T04:43:16.549Z,4.37
2019-02-11T04:44:16.519Z,4.52
2019-02-11T04:45:16.518Z,4.52
2019-02-11T04:46:16.491Z,4.45
2019-02-11T04:47:16.480Z,4.59
2019-02-11T04:48:16.468Z,4.58
2019-02-11T04:49:16.486Z,4.58
2019-02-11T04:50:16.467Z,4.56
2019-02-11T04:51:16.435Z,4.56
2019-02-11T04:52:16.435Z,4.58
2019-02-11T04:53:16.417Z,4.53
2019-02-11T04:54:16.408Z,4.59
2019-02-11T04:55:16.432Z,4.58
2019-02-11T04:56:16.407Z,4.63
2019-02-11T04:57:16.380Z,4.68
2019-02-11T04:58:16.362Z,4.67
2019-02-11T04:59:16.359Z,4.62
2019-02-11T05:00:16.340Z,4.71
2019-02-11T05:01:16.357Z,4.63
2019-02-11T05:02:16.330Z,4.71
2019-02-11T05:03:16.331Z,4.73
2019-02-11T05:04:16.300Z,4.66
2019-02-11T05:05:16.285Z,4.70
2019-02-11T05:06:16.305Z,4.66
2019-02-11T05:07:16.273Z,4.68
2019-02-11T05:08:16.283Z,4.75
2019-02-11T05:09:16.286Z,4.63
2019-02-11T05:10:16.237Z,4.74
2019-02-11T05:11:16.234Z,4.70
2019-02-11T05:12:16.213Z,4.77
2019-02-11T05:13:16.241Z,4.75
2019-02-11T05:14:16.190Z,4.70
2019-02-11T05:15:16.222Z,4.62
2019-02-11T05:16:16.198Z,4.74
2019-02-11T05:17:16.158Z,4.71
2019-02-11T05:18:16.966Z,4.67
2019-02-11T05:19:16.141Z,4.74
2019-02-11T05:20:16.137Z,4.63
2019-02-11T05:21:16.140Z,4.70
2019-02-11T05:22:16.112Z,4.60
2019-02-11T05:23:16.100Z,4.63
2019-02-11T05:24:16.093Z,4.70
2019-02-11T05:25:16.072Z,4.75
2019-02-11T05:26:16.112Z,4.68
2019-02-11T05:27:16.047Z,4.71
2019-02-11T05:28:16.048Z,4.73
2019-02-11T05:29:16.045Z,4.70
2019-02-11T05:30:16.034Z,4.74
2019-02-11T05:31:16.007Z,4.67
2019-02-11T05:32:16.047Z,4.77
2019-02-11T05:33:15.994Z,4.77
2019-02-11T05:34:15.971Z,4.84
2019-02-11T05:35:15.982Z,4.80
2019-02-11T05:36:15.960Z,4.84
2019-02-11T05:37:15.947Z,4.73
2019-02-11T05:38:15.963Z,4.71
2019-02-11T05:39:15.933Z,4.74
2019-02-11T05:40:15.914Z,4.67
2019-02-11T05:41:15.906Z,4.78
2019-02-11T05:42:15.956Z,4.82
2019-02-11T05:43:15.884Z,4.80
2019-02-11T05:44:15.903Z,4.82
2019-02-11T05:45:15.867Z,4.86
2019-02-11T05:46:15.845Z,4.89
2019-02-11T05:47:15.840Z,4.92
2019-02-11T05:48:15.828Z,4.87
2019-02-11T05:49:15.837Z,4.90
2019-02-11T05:50:17.008Z,4.87
2019-02-11T05:51:15.804Z,4.87
2019-02-11T05:52:15.789Z,4.92
2019-02-11T05:53:15.769Z,4.84
2019-02-11T05:54:15.784Z,4.86
2019-02-11T05:55:15.741Z,4.87
2019-02-11T05:56:15.772Z,4.89
2019-02-11T05:57:15.730Z,4.86
2019-02-11T05:58:15.727Z,4.84
2019-02-11T05:59:15.703Z,4.87
2019-02-11T06:00:15.714Z,4.89
2019-02-11T06:01:15.709Z,4.90
2019-02-11T06:02:15.690Z,4.80
2019-02-11T06:03:15.662Z,4.89
2019-02-11T06:04:15.686Z,4.87
2019-02-11T06:05:15.648Z,4.90
2019-02-11T06:06:15.657Z,4.84
2019-02-11T06:07:15.648Z,4.92
2019-02-11T06:08:15.606Z,4.78
2019-02-11T06:09:15.630Z,4.89
2019-02-11T06:10:15.587Z,4.90
2019-02-11T06:11:15.573Z,4.89
2019-02-11T06:12:15.579Z,4.86
2019-02-11T06:13:15.546Z,4.87
2019-02-11T06:14:15.543Z,4.87
2019-02-11T06:15:15.570Z,4.93
2019-02-11T06:16:15.562Z,4.90
2019-02-11T06:17:15.512Z,4.89
2019-02-11T06:18:15.502Z,4.89
2019-02-11T06:19:15.492Z,4.99
2019-02-11T06:20:15.477Z,4.94
2019-02-11T06:21:15.503Z,4.89
2019-02-11T06:22:15.453Z,4.90
2019-02-11T06:23:15.459Z,4.93
2019-02-11T06:24:15.438Z,4.99
2019-02-11T06:25:15.455Z,5.00
2019-02-11T06:26:15.429Z,4.96
2019-02-11T06:27:15.471Z,4.96
2019-02-11T06:28:15.414Z,5.02
2019-02-11T06:29:15.386Z,5.02
2019-02-11T06:30:15.365Z,5.02
2019-02-11T06:31:15.362Z,5.05
2019-02-11T06:32:15.362Z,5.00
2019-02-11T06:33:15.438Z,4.99
2019-02-11T06:34:15.332Z,5.04
2019-02-11T06:35:15.318Z,5.08
2019-02-11T06:36:15.343Z,5.12
2019-02-11T06:37:15.297Z,5.08
2019-02-11T06:38:15.283Z,5.08
2019-02-11T06:39:15.321Z,5.18
2019-02-11T06:40:15.268Z,5.18
2019-02-11T06:41:15.244Z,5.15
2019-02-11T06:42:15.250Z,5.21
2019-02-11T06:43:15.236Z,5.18
2019-02-11T06:44:15.221Z,5.20
2019-02-11T06:45:15.257Z,5.21
2019-02-11T06:46:15.198Z,5.21
2019-02-11T06:47:15.191Z,5.26
2019-02-11T06:48:15.180Z,5.25
2019-02-11T06:49:15.156Z,5.28
2019-02-11T06:50:15.162Z,5.35
2019-02-11T06:51:15.175Z,5.33
2019-02-11T06:52:15.149Z,5.30
2019-02-11T06:53:15.123Z,5.32
2019-02-11T06:54:15.116Z,5.28
2019-02-11T06:55:15.095Z,5.30
2019-02-11T06:56:15.088Z,5.26
2019-02-11T06:57:15.126Z,5.30
2019-02-11T06:58:15.102Z,5.39
2019-02-11T06:59:15.062Z,5.35
2019-02-11T07:00:15.053Z,5.38
2019-02-11T07:01:15.036Z,5.35
2019-02-11T07:02:15.062Z,5.38
2019-02-11T07:03:15.302Z,5.43
2019-02-11T07:04:15.011Z,5.41
2019-02-11T07:05:15.001Z,5.39
2019-02-11T07:06:14.980Z,5.41
2019-02-11T07:07:15.030Z,5.46
2019-02-11T07:08:14.971Z,5.41
2019-02-11T07:09:14.948Z,5.41
2019-02-11T07:10:14.945Z,5.53
2019-02-11T07:11:14.946Z,5.46
2019-02-11T07:12:14.914Z,5.48
2019-02-11T07:13:14.942Z,5.51
2019-02-11T07:14:14.884Z,5.50
2019-02-11T07:15:21.568Z,5.46
2019-02-11T07:16:15.865Z,5.51
2019-02-11T07:17:14.856Z,5.57
2019-02-11T07:18:14.851Z,5.53
2019-02-11T07:19:14.858Z,5.59
2019-02-11T07:20:14.815Z,5.61
2019-02-11T07:21:14.824Z,5.57
2019-02-11T07:22:14.826Z,5.61
2019-02-11T07:23:14.795Z,5.57
2019-02-11T07:24:14.800Z,5.59
2019-02-11T07:25:16.508Z,5.61
2019-02-11T07:26:14.753Z,5.68
2019-02-11T07:27:14.751Z,5.69
2019-02-11T07:28:14.763Z,5.68
2019-02-11T07:29:14.733Z,5.72
2019-02-11T07:30:14.731Z,5.73
2019-02-11T07:31:14.704Z,5.84
2019-02-11T07:32:14.695Z,5.90
2019-02-11T07:33:14.712Z,5.94
2019-02-11T07:34:14.673Z,5.93
2019-02-11T07:35:14.753Z,5.98
2019-02-11T07:36:14.669Z,6.04
2019-02-11T07:37:14.635Z,5.99
2019-02-11T07:38:14.659Z,5.93
2019-02-11T07:39:14.621Z,5.84
2019-02-11T07:40:14.621Z,5.93
2019-02-11T07:41:14.586Z,5.79
2019-02-11T07:42:14.605Z,5.89
2019-02-11T07:43:14.565Z,5.83
2019-02-11T07:44:14.572Z,5.87
2019-02-11T07:45:14.567Z,5.84
2019-02-11T07:46:14.533Z,5.87
2019-02-11T07:47:14.538Z,5.90
2019-02-11T07:48:14.541Z,5.87
2019-02-11T07:49:14.626Z,5.97
2019-02-11T07:50:14.536Z,5.93
2019-02-11T07:51:14.482Z,6.05
2019-02-11T07:52:14.464Z,6.14
2019-02-11T07:53:14.466Z,6.22
2019-02-11T07:54:14.480Z,6.27
2019-02-11T07:55:14.442Z,6.49
2019-02-11T07:56:14.437Z,6.59
2019-02-11T07:57:14.403Z,6.63
2019-02-11T07:58:14.400Z,6.54
2019-02-11T07:59:14.430Z,6.45
2019-02-11T08:00:14.384Z,6.30
2019-02-11T08:01:14.428Z,6.19
2019-02-11T08:02:14.375Z,5.99
2019-02-11T08:03:14.339Z,5.99
2019-02-11T08:04:14.331Z,5.90
2019-02-11T08:05:14.332Z,5.93
2019-02-11T08:06:14.315Z,5.87
2019-02-11T08:07:14.326Z,5.79
2019-02-11T08:08:14.304Z,5.72
2019-02-11T08:09:14.280Z,5.73
2019-02-11T08:10:14.279Z,5.68
2019-02-11T08:11:14.252Z,5.69
2019-02-11T08:12:14.255Z,5.79
2019-02-11T08:13:14.277Z,5.73
2019-02-11T08:14:14.219Z,5.79
2019-02-11T08:15:14.211Z,5.82
2019-02-11T08:16:14.202Z,5.89
2019-02-11T08:17:14.270Z,5.91
2019-02-11T08:18:21.067Z,6.16
2019-02-11T08:19:14.177Z,6.19
2019-02-11T08:20:14.158Z,6.20
2019-02-11T08:21:14.145Z,6.19
2019-02-11T08:22:14.135Z,6.20
2019-02-11T08:23:14.157Z,6.04
2019-02-11T08:24:14.130Z,5.94
2019-02-11T08:25:14.143Z,6.05
2019-02-11T08:26:14.099Z,6.14
2019-02-11T08:27:14.078Z,6.22
2019-02-11T08:28:19.423Z,6.31
2019-02-11T08:29:15.087Z,6.46
2019-02-11T08:30:14.057Z,6.51
2019-02-11T08:31:14.078Z,6.60
2019-02-11T08:32:14.025Z,6.74
2019-02-11T08:33:14.040Z,6.75
2019-02-11T08:34:14.040Z,6.92
2019-02-11T08:35:14.004Z,7.07
2019-02-11T08:36:14.014Z,7.39
2019-02-11T08:37:14.044Z,7.39
2019-02-11T08:38:13.983Z,7.33
2019-02-11T08:39:13.955Z,7.23
2019-02-11T08:40:13.955Z,7.00
2019-02-11T08:41:13.971Z,6.92
2019-02-11T08:42:13.951Z,6.74
2019-02-11T08:43:13.905Z,6.74
2019-02-11T08:44:14.002Z,6.87
2019-02-11T08:45:13.893Z,6.78
2019-02-11T08:46:13.881Z,6.67
2019-02-11T08:47:13.902Z,6.72
2019-02-11T08:48:13.874Z,6.70
2019-02-11T08:49:13.858Z,6.81
2019-02-11T08:50:13.835Z,6.69
2019-02-11T08:51:13.848Z,6.82
2019-02-11T08:52:13.863Z,6.77
2019-02-11T08:53:13.804Z,6.79
2019-02-11T08:54:13.852Z,6.70
2019-02-11T08:55:13.869Z,6.78
2019-02-11T08:56:13.820Z,6.75
2019-02-11T08:57:13.778Z,6.74
2019-02-11T08:58:13.763Z,6.74
2019-02-11T08:59:13.740Z,6.72
2019-02-11T09:00:13.846Z,6.64
2019-02-11T09:01:13.713Z,6.67
2019-02-11T09:02:13.714Z,6.62
2019-02-11T09:03:13.742Z,6.63
2019-02-11T09:04:18.788Z,6.62
2019-02-11T09:05:14.713Z,6.63
2019-02-11T09:06:13.703Z,6.49
2019-02-11T09:07:13.672Z,6.51
2019-02-11T09:08:13.697Z,6.44
2019-02-11T09:09:13.622Z,6.49
2019-02-11T09:10:13.619Z,6.45
2019-02-11T09:11:13.683Z,6.44
2019-02-11T09:12:13.629Z,6.41
2019-02-11T09:13:13.598Z,6.41
2019-02-11T09:14:13.605Z,6.42
2019-02-11T09:15:13.569Z,6.46
2019-02-11T09:16:13.568Z,6.49
2019-02-11T09:17:13.553Z,6.45
2019-02-11T09:18:13.568Z,6.38
2019-02-11T09:19:13.518Z,6.44
2019-02-11T09:20:13.512Z,6.60
2019-02-11T09:21:13.500Z,6.59
2019-02-11T09:22:13.493Z,6.54
2019-02-11T09:23:13.468Z,6.51
2019-02-11T09:24:13.494Z,6.49
2019-02-11T09:25:13.458Z,6.56
2019-02-11T09:26:13.449Z,6.62
2019-02-11T09:27:13.443Z,6.72
2019-02-11T09:28:13.431Z,6.67
2019-02-11T09:29:13.415Z,6.59
2019-02-11T09:30:13.433Z,6.51
2019-02-11T09:31:13.382Z,6.52
2019-02-11T09:32:13.394Z,6.48
2019-02-11T09:33:13.372Z,6.51
2019-02-11T09:34:13.423Z,6.39
2019-02-11T09:35:13.339Z,6.46
2019-02-11T09:36:13.359Z,6.45
2019-02-11T09:37:13.321Z,6.57
2019-02-11T09:38:13.314Z,6.62
2019-02-11T09:39:13.310Z,6.66
2019-02-11T09:40:13.295Z,6.64
2019-02-11T09:41:13.282Z,6.75
2019-02-11T09:42:13.322Z,6.75
2019-02-11T09:43:13.326Z,6.77
2019-02-11T09:44:13.238Z,6.87
2019-02-11T09:45:13.228Z,6.81
2019-02-11T09:46:13.230Z,6.85
2019-02-11T09:47:13.222Z,6.82
2019-02-11T09:48:13.240Z,6.97
2019-02-11T09:49:13.227Z,6.93
2019-02-11T09:50:13.251Z,6.96
2019-02-11T09:51:13.223Z,7.00
2019-02-11T09:52:13.157Z,7.03
2019-02-11T09:53:13.169Z,7.06
2019-02-11T09:54:13.133Z,7.10
2019-02-11T09:55:13.635Z,7.13
2019-02-11T09:56:13.126Z,7.23
2019-02-11T09:57:13.125Z,7.13
2019-02-11T09:58:13.084Z,7.14
2019-02-11T09:59:13.077Z,7.18
2019-02-11T10:00:13.077Z,7.20
2019-02-11T10:01:13.054Z,7.25
2019-02-11T10:02:13.101Z,7.29
2019-02-11T10:03:13.086Z,7.39
2019-02-11T10:04:13.073Z,7.31
2019-02-11T10:05:13.013Z,7.43
2019-02-11T10:06:13.013Z,7.53
2019-02-11T10:07:13.021Z,7.57
2019-02-11T10:08:13.007Z,7.70
2019-02-11T10:09:13.004Z,7.80
2019-02-11T10:10:12.995Z,7.61
2019-02-11T10:11:12.950Z,7.58
2019-02-11T10:12:21.082Z,7.56
2019-02-11T10:13:13.927Z,7.57
2019-02-11T10:14:12.909Z,7.51
2019-02-11T10:15:12.925Z,7.50
2019-02-11T10:16:12.932Z,7.53
2019-02-11T10:17:12.894Z,7.45
2019-02-11T10:18:12.879Z,7.50
2019-02-11T10:19:12.860Z,7.51
2019-02-11T10:20:12.858Z,7.45
2019-02-11T10:21:12.843Z,7.45
2019-02-11T10:22:12.875Z,7.51
2019-02-11T10:23:12.827Z,7.61
2019-02-11T10:24:12.809Z,7.56
2019-02-11T10:25:12.797Z,7.50
2019-02-11T10:26:12.790Z,7.47
2019-02-11T10:27:12.785Z,7.66
2019-02-11T10:28:12.827Z,7.69
2019-02-11T10:29:12.755Z,7.75
2019-02-11T10:30:12.760Z,7.70
2019-02-11T10:31:12.735Z,7.77
2019-02-11T10:32:12.730Z,7.66
2019-02-11T10:33:12.731Z,7.63
2019-02-11T10:34:12.747Z,7.61
2019-02-11T10:35:12.707Z,7.56
2019-02-11T10:36:12.676Z,7.57
2019-02-11T10:37:12.671Z,7.60
2019-02-11T10:38:12.661Z,7.56
2019-02-11T10:39:12.669Z,7.57
2019-02-11T10:40:12.632Z,7.66
2019-02-11T10:41:12.699Z,7.90
2019-02-11T10:42:12.614Z,8.26
2019-02-11T10:43:12.632Z,8.51
2019-02-11T10:44:12.606Z,8.91
2019-02-11T10:45:12.601Z,9.34
2019-02-11T10:46:20.684Z,10.97
2019-02-11T10:47:13.562Z,11.63
2019-02-11T10:48:12.540Z,11.29
2019-02-11T10:49:27.062Z,10.87
2019-02-11T10:50:12.529Z,10.30
2019-02-11T10:51:12.518Z,10.28
2019-02-11T10:52:12.531Z,10.19
2019-02-11T10:53:12.485Z,10.10
2019-02-11T10:54:12.502Z,10.12
2019-02-11T10:55:12.472Z,9.76
2019-02-11T10:56:12.449Z,9.58
2019-02-11T10:57:12.507Z,9.36
2019-02-11T10:58:12.427Z,9.22
2019-02-11T10:59:12.458Z,9.13
2019-02-11T11:00:12.418Z,9.00
2019-02-11T11:01:13.413Z,9.00
2019-02-11T11:02:12.407Z,9.03
2019-02-11T11:03:12.413Z,9.14
2019-02-11T11:04:12.364Z,9.37
2019-02-11T11:05:12.354Z,9.29
2019-02-11T11:06:12.336Z,9.23
2019-02-11T11:07:12.345Z,9.13
2019-02-11T11:08:12.322Z,8.99
2019-02-11T11:09:12.360Z,8.92
2019-02-11T11:10:12.355Z,8.79
2019-02-11T11:11:12.285Z,8.81
2019-02-11T11:12:12.276Z,8.66
2019-02-11T11:13:12.273Z,8.58
2019-02-11T11:14:12.289Z,8.42
2019-02-11T11:15:12.256Z,8.34
2019-02-11T11:16:12.290Z,8.46
2019-02-11T11:17:12.243Z,8.44
2019-02-11T11:18:12.213Z,8.33
2019-02-11T11:19:12.228Z,8.45
2019-02-11T11:20:12.270Z,8.63
2019-02-11T11:21:12.175Z,8.64
2019-02-11T11:22:12.266Z,8.78
2019-02-11T11:23:12.169Z,8.78
2019-02-11T11:24:12.153Z,8.66
2019-02-11T11:25:12.132Z,8.69
2019-02-11T11:26:12.129Z,8.64
2019-02-11T11:27:12.106Z,8.84
2019-02-11T11:28:12.129Z,8.97
2019-02-11T11:29:12.086Z,9.00
2019-02-11T11:30:12.117Z,9.21
2019-02-11T11:31:12.069Z,9.31
2019-02-11T11:32:12.054Z,9.44
2019-02-11T11:33:12.059Z,9.36
2019-02-11T11:34:12.089Z,9.31
2019-02-11T11:35:12.019Z,9.25
2019-02-11T11:36:12.026Z,9.06
2019-02-11T11:37:13.385Z,8.97
2019-02-11T11:38:11.982Z,8.99
2019-02-11T11:39:11.979Z,8.99
2019-02-11T11:40:12.022Z,8.81
2019-02-11T11:41:11.995Z,8.70
2019-02-11T11:42:11.944Z,8.71
2019-02-11T11:43:11.977Z,8.82
2019-02-11T11:44:11.921Z,8.95
2019-02-11T11:45:11.935Z,9.02
2019-02-11T11:46:11.912Z,8.81
2019-02-11T11:47:11.906Z,8.73
2019-02-11T11:48:11.923Z,8.53
2019-02-11T11:49:11.860Z,8.44
2019-02-11T11:50:11.859Z,8.34
2019-02-11T11:51:11.845Z,8.33
2019-02-11T11:52:11.843Z,8.34
2019-02-11T11:53:11.856Z,8.30
2019-02-11T11:54:11.808Z,8.20
2019-02-11T11:55:11.800Z,8.13
2019-02-11T11:56:11.790Z,7.95
2019-02-11T11:57:11.779Z,7.94
2019-02-11T11:58:11.820Z,7.94
2019-02-11T11:59:11.765Z,8.00
2019-02-11T12:00:11.760Z,8.01
2019-02-11T12:01:11.751Z,8.01
2019-02-11T12:02:15.573Z,7.97
2019-02-11T12:03:11.722Z,7.95
2019-02-11T12:04:11.746Z,8.00
2019-02-11T12:05:11.685Z,8.00
2019-02-11T12:06:11.691Z,8.00
2019-02-11T12:07:11.671Z,8.03
2019-02-11T12:08:11.671Z,7.94
2019-02-11T12:09:11.658Z,8.12
2019-02-11T12:10:11.673Z,8.10
2019-02-11T12:11:11.631Z,7.98
2019-02-11T12:12:13.201Z,7.93
2019-02-11T12:13:22.618Z,7.85
2019-02-11T12:14:12.609Z,7.98
2019-02-11T12:15:11.587Z,7.97
2019-02-11T12:16:11.616Z,7.87
2019-02-11T12:17:11.609Z,7.85
2019-02-11T12:18:11.606Z,7.85
2019-02-11T12:19:11.547Z,7.80
2019-02-11T12:20:11.534Z,7.87
2019-02-11T12:21:11.510Z,7.93
2019-02-11T12:22:13.142Z,7.90
2019-02-11T12:23:11.525Z,7.88
2019-02-11T12:24:11.476Z,8.13
2019-02-11T12:25:11.496Z,8.38
2019-02-11T12:26:11.475Z,8.49
2019-02-11T12:27:11.458Z,8.82
2019-02-11T12:28:11.444Z,8.81
2019-02-11T12:29:11.471Z,8.95
2019-02-11T12:30:11.418Z,8.64
2019-02-11T12:31:11.412Z,8.36
2019-02-11T12:32:11.400Z,8.20
2019-02-11T12:33:11.391Z,8.12
2019-02-11T12:34:11.386Z,8.12
2019-02-11T12:35:11.425Z,8.00
2019-02-11T12:36:11.352Z,7.87
2019-02-11T12:37:11.339Z,7.70
2019-02-11T12:38:11.351Z,7.61
2019-02-11T12:39:11.327Z,7.54
2019-02-11T12:40:11.326Z,7.45
2019-02-11T12:41:11.332Z,7.40
2019-02-11T12:42:11.293Z,7.47
2019-02-11T12:43:11.346Z,7.47
2019-02-11T12:44:11.288Z,7.40
2019-02-11T12:45:11.270Z,7.61
2019-02-11T12:46:11.345Z,7.82
2019-02-11T12:47:14.720Z,7.97
2019-02-11T12:48:11.236Z,7.98
2019-02-11T12:49:11.226Z,8.09
2019-02-11T12:50:11.198Z,8.78
2019-02-11T12:51:11.243Z,10.35
2019-02-11T12:52:11.236Z,9.92
2019-02-11T12:53:11.166Z,10.79
2019-02-11T12:54:11.168Z,11.78
2019-02-11T12:55:11.160Z,12.58
2019-02-11T12:56:11.131Z,12.76
2019-02-11T12:57:11.137Z,13.25
2019-02-11T12:58:11.144Z,12.87
2019-02-11T12:59:11.100Z,12.32
2019-02-11T13:00:11.096Z,11.70
2019-02-11T13:01:11.090Z,11.66
2019-02-11T13:02:11.101Z,12.53
2019-02-11T13:03:11.090Z,12.83
2019-02-11T13:04:11.088Z,13.59
2019-02-11T13:05:11.067Z,13.83
2019-02-11T13:06:11.065Z,13.28
2019-02-11T13:07:11.022Z,12.29
2019-02-11T13:08:11.037Z,11.45
2019-02-11T13:09:11.036Z,10.44
2019-02-11T13:10:10.984Z,10.09
2019-02-11T13:11:10.982Z,9.87
2019-02-11T13:12:11.154Z,9.59
2019-02-11T13:13:10.953Z,9.50
2019-02-11T13:14:11.542Z,9.37
2019-02-11T13:15:11.000Z,9.28
2019-02-11T13:16:10.929Z,9.22
2019-02-11T13:17:15.584Z,8.99